createdAt,value
2019-04-06T00:01:47.791Z,79.60
2019-04-06T00:04:16.242Z,80.40
2019-04-06T00:06:44.730Z,79.70
2019-04-06T00:09:13.185Z,79.40
2019-04-06T00:11:41.619Z,80.40
2019-04-06T00:14:10.147Z,79.80
2019-04-06T00:16:38.570Z,81.00
2019-04-06T00:19:07.131Z,81.00
2019-04-06T00:21:35.542Z,81.50
2019-04-06T00:24:04.059Z,81.30
2019-04-06T00:26:32.506Z,81.10
2019-04-06T00:29:01.024Z,80.40
2019-04-06T00:31:45.816Z,79.80
2019-04-06T00:34:16.004Z,79.00
2019-04-06T00:36:44.459Z,77.90
2019-04-06T00:39:12.887Z,77.10
2019-04-06T00:41:41.335Z,77.30
2019-04-06T00:44:09.918Z,77.20
2019-04-06T00:46:38.380Z,77.10
2019-04-06T00:49:06.807Z,77.10
2019-04-06T00:51:35.337Z,77.60
2019-04-06T00:54:03.759Z,77.90
2019-04-06T00:56:32.203Z,79.20
2019-04-06T00:59:02.238Z,80.40
2019-04-06T01:01:30.678Z,81.20
2019-04-06T01:03:59.101Z,81.40
2019-04-06T01:06:27.555Z,81.80
2019-04-06T01:08:56.055Z,82.10
2019-04-06T01:11:24.502Z,82.20
2019-04-06T01:13:52.929Z,82.00
2019-04-06T01:16:21.382Z,81.90
2019-04-06T01:18:50.082Z,81.20
2019-04-06T01:21:18.519Z,81.30
2019-04-06T01:23:47.070Z,81.00
2019-04-06T01:26:15.589Z,80.90
2019-04-06T01:28:44.041Z,80.60
2019-04-06T01:31:12.459Z,80.40
2019-04-06T01:33:40.907Z,79.90
2019-04-06T01:36:10.947Z,79.50
2019-04-06T01:38:39.572Z,79.90
2019-04-06T01:41:08.159Z,79.20
2019-04-06T01:43:36.689Z,79.50
2019-04-06T01:46:05.298Z,80.50
2019-04-06T01:48:33.753Z,80.40
2019-04-06T01:51:02.183Z,79.70
2019-04-06T01:53:30.626Z,79.20
2019-04-06T01:56:00.730Z,79.30
2019-04-06T01:58:29.334Z,78.90
2019-04-06T02:01:02.132Z,78.20
2019-04-06T02:03:30.569Z,77.50
2019-04-06T02:05:58.995Z,76.90
2019-04-06T02:08:27.438Z,76.90
2019-04-06T02:10:55.931Z,76.90
2019-04-06T02:13:25.911Z,75.90
2019-04-06T02:15:54.330Z,75.50
2019-04-06T02:18:22.783Z,75.40
2019-04-06T02:20:51.321Z,74.70
2019-04-06T02:23:19.791Z,75.50
2019-04-06T02:25:49.747Z,75.60
2019-04-06T02:28:19.866Z,75.20
2019-04-06T02:31:06.235Z,75.30
2019-04-06T02:33:39.491Z,75.40
2019-04-06T02:36:18.318Z,75.30
2019-04-06T02:38:48.502Z,75.40
2019-04-06T02:41:18.999Z,75.90
2019-04-06T02:43:49.088Z,77.00
2019-04-06T02:46:17.506Z,76.90
2019-04-06T02:48:45.955Z,77.20
2019-04-06T02:51:14.374Z,77.30
2019-04-06T02:53:42.794Z,77.50
2019-04-06T02:56:11.561Z,77.50
2019-04-06T02:58:40.390Z,78.00
2019-04-06T03:01:08.900Z,78.80
2019-04-06T03:03:37.318Z,78.40
2019-04-06T03:06:06.015Z,78.50
2019-04-06T03:08:34.512Z,78.30
2019-04-06T03:11:03.092Z,78.70
2019-04-06T03:13:31.526Z,78.90
2019-04-06T03:16:01.667Z,79.60
2019-04-06T03:18:30.356Z,79.80
2019-04-06T03:20:58.937Z,80.00
2019-04-06T03:23:27.356Z,80.70
2019-04-06T03:25:55.803Z,81.70
2019-04-06T03:28:24.357Z,81.90
2019-04-06T03:30:52.851Z,82.30
2019-04-06T03:33:21.352Z,81.90
2019-04-06T03:35:51.239Z,82.50
2019-04-06T03:38:20.024Z,82.20
2019-04-06T03:40:48.471Z,82.30
2019-04-06T03:43:16.896Z,83.00
2019-04-06T03:45:46.915Z,83.10
2019-04-06T03:48:17.045Z,83.40
2019-04-06T03:50:45.502Z,83.60
2019-04-06T03:53:14.111Z,83.50
2019-04-06T03:55:42.589Z,83.10
2019-04-06T03:58:11.107Z,82.70
2019-04-06T04:00:39.537Z,82.90
2019-04-06T04:03:08.095Z,82.80
2019-04-06T04:05:36.644Z,82.60
2019-04-06T04:08:05.088Z,81.70
2019-04-06T04:10:36.297Z,81.20
2019-04-06T04:13:05.622Z,81.30
2019-04-06T04:15:34.489Z,81.10
2019-04-06T04:18:03.138Z,81.40
2019-04-06T04:20:33.123Z,81.50
2019-04-06T04:23:01.690Z,81.30
2019-04-06T04:25:30.245Z,81.70
2019-04-06T04:27:59.015Z,81.70
2019-04-06T04:30:32.990Z,81.60
2019-04-06T04:32:57.677Z,81.00
2019-04-06T04:35:26.163Z,80.80
2019-04-06T04:37:54.616Z,80.30
2019-04-06T04:40:23.107Z,79.70
2019-04-06T04:42:51.737Z,79.20
2019-04-06T04:45:20.305Z,79.40
2019-04-06T04:47:50.334Z,78.70
2019-04-06T04:50:19.112Z,79.30
2019-04-06T04:52:47.704Z,79.00
2019-04-06T04:55:16.158Z,79.20
2019-04-06T04:57:46.191Z,79.40
2019-04-06T05:00:14.980Z,79.00
2019-04-06T05:02:43.561Z,79.00
2019-04-06T05:05:12.159Z,78.60
2019-04-06T05:07:40.582Z,79.00
2019-04-06T05:10:09.518Z,78.80
2019-04-06T05:12:37.933Z,78.40
2019-04-06T05:15:09.663Z,77.80
2019-04-06T05:17:39.638Z,77.90
2019-04-06T05:20:09.122Z,78.30
2019-04-06T05:22:37.610Z,78.90
2019-04-06T05:25:07.201Z,78.80
2019-04-06T05:27:35.921Z,78.50
2019-04-06T05:30:06.743Z,78.40
2019-04-06T05:32:35.461Z,78.20
2019-04-06T05:35:05.456Z,77.10
2019-04-06T05:37:33.876Z,77.40
2019-04-06T05:40:02.323Z,76.10
2019-04-06T05:42:30.825Z,76.00
2019-04-06T05:44:59.321Z,75.60
2019-04-06T05:47:27.926Z,76.20
2019-04-06T05:49:56.376Z,75.80
2019-04-06T05:52:24.826Z,75.10
2019-04-06T05:54:56.427Z,74.70
2019-04-06T05:57:24.995Z,74.30
2019-04-06T05:59:53.590Z,74.50
2019-04-06T06:02:22.340Z,74.30
2019-04-06T06:04:50.875Z,73.60
2019-04-06T06:07:19.321Z,73.50
2019-04-06T06:09:47.760Z,74.70
2019-04-06T06:12:16.243Z,74.30
2019-04-06T06:14:44.651Z,73.30
2019-04-06T06:17:14.384Z,73.10
2019-04-06T06:19:43.033Z,73.40
2019-04-06T06:22:11.556Z,73.70
2019-04-06T06:24:40.072Z,73.50
2019-04-06T06:27:08.509Z,72.60
2019-04-06T06:29:36.939Z,72.80
2019-04-06T06:32:05.546Z,72.30
2019-04-06T06:34:33.981Z,71.70
2019-04-06T06:37:02.497Z,71.90
2019-04-06T06:39:31.201Z,71.70
2019-04-06T06:41:59.685Z,72.40
2019-04-06T06:44:28.166Z,72.90
2019-04-06T06:46:56.734Z,71.70
2019-04-06T06:49:25.266Z,71.50
2019-04-06T06:51:53.758Z,70.30
2019-04-06T06:54:24.166Z,70.80
2019-04-06T06:56:52.672Z,70.00
2019-04-06T06:59:21.118Z,69.60
2019-04-06T07:01:49.587Z,69.80
2019-04-06T07:04:18.137Z,69.60
2019-04-06T07:06:46.751Z,69.50
2019-04-06T07:09:15.276Z,69.00
2019-04-06T07:11:43.719Z,68.70
2019-04-06T07:14:12.287Z,69.50
2019-04-06T07:16:40.746Z,69.20
2019-04-06T07:19:09.217Z,68.00
2019-04-06T07:21:37.789Z,68.60
2019-04-06T07:24:06.358Z,68.80
2019-04-06T07:26:34.862Z,69.40
2019-04-06T07:29:03.334Z,69.10
2019-04-06T07:31:31.818Z,68.10
2019-04-06T07:34:02.024Z,67.90
2019-04-06T07:36:30.614Z,66.70
2019-04-06T07:38:59.399Z,67.40
2019-04-06T07:41:27.872Z,67.30
2019-04-06T07:43:56.297Z,67.00
2019-04-06T07:46:24.837Z,67.30
2019-04-06T07:48:53.306Z,67.20
2019-04-06T07:51:21.784Z,66.70
2019-04-06T07:53:50.341Z,66.70
2019-04-06T07:56:20.621Z,66.20
2019-04-06T07:58:50.048Z,66.90
2019-04-06T08:01:19.105Z,66.30
2019-04-06T08:03:47.681Z,66.40
2019-04-06T08:06:16.209Z,66.30
2019-04-06T08:08:44.652Z,65.90
2019-04-06T08:11:13.116Z,65.50
2019-04-06T08:13:41.704Z,64.40
2019-04-06T08:16:10.253Z,64.30
2019-04-06T08:18:38.697Z,42.70
2019-04-06T08:21:07.143Z,41.40
2019-04-06T08:23:35.568Z,37.50
2019-04-06T08:26:04.101Z,40.30
2019-04-06T08:28:32.526Z,40.90
2019-04-06T08:31:01.034Z,40.90
2019-04-06T08:33:29.650Z,35.30
2019-04-06T08:35:58.240Z,37.00
2019-04-06T08:38:26.674Z,37.90
2019-04-06T08:40:55.140Z,36.60
2019-04-06T08:43:23.620Z,36.30
2019-04-06T08:45:52.289Z,35.00
2019-04-06T08:48:20.788Z,35.00
2019-04-06T08:50:49.236Z,35.20
2019-04-06T08:53:17.687Z,34.80
2019-04-06T08:55:46.135Z,36.20
2019-04-06T08:58:14.591Z,34.30
2019-04-06T09:00:43.102Z,33.40
2019-04-06T09:03:11.558Z,32.20
2019-04-06T09:05:40.048Z,32.50
2019-04-06T09:08:08.499Z,32.80
2019-04-06T09:10:36.922Z,32.40
2019-04-06T09:13:05.446Z,30.20
2019-04-06T09:15:33.891Z,29.80
2019-04-06T09:18:02.353Z,29.90
2019-04-06T09:20:30.777Z,30.60
2019-04-06T09:23:00.849Z,29.30
2019-04-06T09:25:29.285Z,30.30
2019-04-06T09:27:57.825Z,28.60
2019-04-06T09:30:26.335Z,29.50
2019-04-06T09:32:54.798Z,29.20
2019-04-06T09:35:23.535Z,29.40
2019-04-06T09:37:52.069Z,29.00
2019-04-06T09:40:20.510Z,27.90
2019-04-06T09:42:48.951Z,27.80
2019-04-06T09:45:28.487Z,28.80
2019-04-06T09:47:58.610Z,29.00
2019-04-06T09:50:28.832Z,29.10
2019-04-06T09:53:05.103Z,28.70
2019-04-06T09:55:38.316Z,28.80
2019-04-06T09:58:08.438Z,29.00
2019-04-06T10:00:41.483Z,28.10
2019-04-06T10:03:26.822Z,28.30
2019-04-06T10:05:59.746Z,29.30
2019-04-06T10:08:35.972Z,29.10
2019-04-06T10:11:08.994Z,27.90
2019-04-06T10:13:53.832Z,27.80
2019-04-06T10:16:32.673Z,27.30
2019-04-06T10:19:08.298Z,28.00
2019-04-06T10:21:54.906Z,27.90
2019-04-06T10:24:39.743Z,27.90
2019-04-06T10:27:15.602Z,28.30
2019-04-06T10:30:03.779Z,28.10
2019-04-06T10:32:33.881Z,28.20
2019-04-06T10:35:04.059Z,28.50
2019-04-06T10:37:39.829Z,28.80
2019-04-06T10:40:26.421Z,28.60
2019-04-06T10:42:56.510Z,28.70
2019-04-06T10:45:44.939Z,28.90
2019-04-06T10:48:24.349Z,28.60
2019-04-06T10:51:07.121Z,28.70
2019-04-06T10:53:37.454Z,28.80
2019-04-06T10:56:07.544Z,29.10
2019-04-06T10:58:43.672Z,28.60
2019-04-06T11:01:13.917Z,28.80
2019-04-06T11:03:49.617Z,28.70
2019-04-06T11:06:19.808Z,28.40
2019-04-06T11:09:04.975Z,28.20
2019-04-06T11:11:44.192Z,28.60
2019-04-06T11:14:17.127Z,28.30
2019-04-06T11:16:48.285Z,28.70
2019-04-06T11:19:34.306Z,28.70
2019-04-06T11:22:20.898Z,28.60
2019-04-06T11:25:06.009Z,28.40
2019-04-06T11:27:48.264Z,27.90
2019-04-06T11:30:35.426Z,27.80
2019-04-06T11:33:14.603Z,27.60
2019-04-06T11:35:47.482Z,27.70
2019-04-06T11:38:20.533Z,28.00
2019-04-06T11:40:50.682Z,28.20
2019-04-06T11:43:20.774Z,27.90
2019-04-06T11:45:54.145Z,28.10
2019-04-06T11:48:24.821Z,27.80
2019-04-06T11:51:11.231Z,28.30
2019-04-06T11:53:56.382Z,28.40
2019-04-06T11:56:35.554Z,28.20
2019-04-06T11:59:05.723Z,28.40
2019-04-06T12:01:50.916Z,28.30
2019-04-06T12:04:21.092Z,28.50
2019-04-06T12:06:56.931Z,28.10
2019-04-06T12:09:27.257Z,28.00
2019-04-06T12:12:03.948Z,28.00
2019-04-06T12:14:39.868Z,28.10
2019-04-06T12:17:13.252Z,28.10
2019-04-06T12:19:59.794Z,28.40
2019-04-06T12:22:35.909Z,28.30
2019-04-06T12:25:07.951Z,28.00
2019-04-06T12:27:56.501Z,28.20
2019-04-06T12:30:38.226Z,27.90
2019-04-06T12:33:25.459Z,27.50
2019-04-06T12:35:55.580Z,27.30
2019-04-06T12:38:34.599Z,28.00
2019-04-06T12:41:20.936Z,28.00
2019-04-06T12:44:07.847Z,28.10
2019-04-06T12:46:44.672Z,27.90
2019-04-06T12:49:14.754Z,27.80
2019-04-06T12:52:00.958Z,27.90
2019-04-06T12:54:37.088Z,27.90
2019-04-06T12:57:09.959Z,28.50
2019-04-06T12:59:40.122Z,28.40
2019-04-06T13:02:19.108Z,28.60
2019-04-06T13:04:55.055Z,29.40
2019-04-06T13:07:25.160Z,28.70
2019-04-06T13:09:58.014Z,28.80
2019-04-06T13:12:37.152Z,29.00
2019-04-06T13:15:17.581Z,29.20
2019-04-06T13:17:59.677Z,29.20
2019-04-06T13:20:30.061Z,28.60
2019-04-06T13:23:16.365Z,28.30
2019-04-06T13:25:46.445Z,28.30
2019-04-06T13:28:35.185Z,28.70
2019-04-06T13:31:05.570Z,28.40
2019-04-06T13:33:35.671Z,28.50
2019-04-06T13:36:05.927Z,28.20
2019-04-06T13:38:44.733Z,28.40
2019-04-06T13:41:23.568Z,28.60
2019-04-06T13:44:02.450Z,28.80
2019-04-06T13:46:44.433Z,28.80
2019-04-06T13:49:23.778Z,28.80
2019-04-06T13:52:02.925Z,28.70
2019-04-06T13:54:41.781Z,28.80
2019-04-06T13:57:24.125Z,28.50
2019-04-06T14:00:00.157Z,29.30
2019-04-06T14:02:30.300Z,28.60
2019-04-06T14:05:00.460Z,28.70
2019-04-06T14:07:33.509Z,28.80
2019-04-06T14:10:06.411Z,28.70
2019-04-06T14:12:44.995Z,29.10
2019-04-06T14:15:21.053Z,28.90
2019-04-06T14:18:07.406Z,29.10
2019-04-06T14:20:53.777Z,29.40
2019-04-06T14:23:29.986Z,28.70
2019-04-06T14:26:00.112Z,28.70
2019-04-06T14:28:46.414Z,28.30
2019-04-06T14:31:27.280Z,28.30
2019-04-06T14:34:07.471Z,28.00
2019-04-06T14:36:52.794Z,28.30
2019-04-06T14:39:22.932Z,28.50
2019-04-06T14:41:58.831Z,28.10
2019-04-06T14:44:37.908Z,28.10
2019-04-06T14:47:10.924Z,28.10
2019-04-06T14:49:56.415Z,28.00
2019-04-06T14:52:35.522Z,28.60
2019-04-06T14:55:15.166Z,28.10
2019-04-06T14:58:03.704Z,28.50
2019-04-06T15:00:36.818Z,28.70
2019-04-06T15:03:23.388Z,27.60
2019-04-06T15:05:53.483Z,27.50
2019-04-06T15:08:23.553Z,27.30
2019-04-06T15:11:10.364Z,27.30
2019-04-06T15:13:40.755Z,27.20
2019-04-06T15:16:25.981Z,27.50
2019-04-06T15:18:59.158Z,27.40
2019-04-06T15:21:32.315Z,27.60
2019-04-06T15:24:05.384Z,27.50
2019-04-06T15:26:35.498Z,27.60
2019-04-06T15:29:22.263Z,27.70
2019-04-06T15:32:01.970Z,27.60
2019-04-06T15:34:48.280Z,27.60
2019-04-06T15:37:34.874Z,27.40
2019-04-06T15:40:22.050Z,27.80
2019-04-06T15:43:01.771Z,27.70
2019-04-06T15:45:31.994Z,27.50
2019-04-06T15:48:08.268Z,27.40
2019-04-06T15:50:45.066Z,27.60
2019-04-06T15:53:17.864Z,27.60
2019-04-06T15:55:50.388Z,27.60
2019-04-06T15:58:32.685Z,27.60
2019-04-06T16:01:05.522Z,27.60
2019-04-06T16:03:37.722Z,27.30
2019-04-06T16:06:19.743Z,27.40
2019-04-06T16:09:06.111Z,27.30
2019-04-06T16:11:40.671Z,27.10
2019-04-06T16:14:22.760Z,27.20
2019-04-06T16:16:55.870Z,27.30
2019-04-06T16:19:25.953Z,27.20
2019-04-06T16:22:04.992Z,27.40
2019-04-06T16:24:41.594Z,27.10
2019-04-06T16:27:11.711Z,27.10
2019-04-06T16:29:47.910Z,27.00
2019-04-06T16:32:34.320Z,27.20
2019-04-06T16:35:20.364Z,26.90
2019-04-06T16:37:50.442Z,26.90
2019-04-06T16:40:36.727Z,27.00
2019-04-06T16:43:06.984Z,26.80
2019-04-06T16:45:38.906Z,26.80
2019-04-06T16:48:15.162Z,26.90
2019-04-06T16:50:47.724Z,26.60
2019-04-06T16:53:20.826Z,26.60
2019-04-06T16:55:50.945Z,26.90
2019-04-06T16:58:36.151Z,26.70
2019-04-06T17:01:16.245Z,26.60
2019-04-06T17:03:49.118Z,26.60
2019-04-06T17:06:34.271Z,26.50
2019-04-06T17:09:19.444Z,26.70
2019-04-06T17:12:06.127Z,26.40
2019-04-06T17:14:36.283Z,26.50
2019-04-06T17:17:06.374Z,26.70
2019-04-06T17:19:39.398Z,26.50
2019-04-06T17:22:28.138Z,26.40
2019-04-06T17:24:58.282Z,26.40
2019-04-06T17:27:28.467Z,26.70
2019-04-06T17:30:07.551Z,26.80
2019-04-06T17:32:53.653Z,26.90
2019-04-06T17:35:26.816Z,26.70
2019-04-06T17:37:59.632Z,26.90
2019-04-06T17:40:29.917Z,27.00
2019-04-06T17:43:00.128Z,27.00
2019-04-06T17:45:44.985Z,26.90
2019-04-06T17:48:33.962Z,27.00
2019-04-06T17:51:10.203Z,27.00
2019-04-06T17:53:58.468Z,26.80
2019-04-06T17:56:35.140Z,26.90
2019-04-06T17:59:22.150Z,26.90
2019-04-06T18:01:56.782Z,27.10
2019-04-06T18:04:35.991Z,27.10
2019-04-06T18:07:06.331Z,27.10
2019-04-06T18:09:42.161Z,26.90
2019-04-06T18:12:12.738Z,27.00
2019-04-06T18:14:41.366Z,26.80
2019-04-06T18:17:10.186Z,26.90
2019-04-06T18:19:38.662Z,27.10
2019-04-06T18:22:07.236Z,27.00
2019-04-06T18:24:36.702Z,27.00
2019-04-06T18:27:05.302Z,27.10
2019-04-06T18:29:34.616Z,28.80
2019-04-06T18:32:07.407Z,28.80
2019-04-06T18:34:35.853Z,28.90
2019-04-06T18:37:21.384Z,29.30
2019-04-06T18:39:51.584Z,29.40
2019-04-06T18:42:20.089Z,29.70
2019-04-06T18:44:48.539Z,30.00
2019-04-06T18:47:16.967Z,30.20
2019-04-06T18:49:45.413Z,30.20
2019-04-06T18:52:14.117Z,30.70
2019-04-06T18:54:42.564Z,30.90
2019-04-06T18:57:11.021Z,31.30
2019-04-06T18:59:39.678Z,31.40
2019-04-06T19:02:08.671Z,31.70
2019-04-06T19:04:37.383Z,32.30
2019-04-06T19:07:06.458Z,32.80
2019-04-06T19:09:35.100Z,32.80
2019-04-06T19:12:04.277Z,33.00
2019-04-06T19:14:34.378Z,33.90
2019-04-06T19:17:03.677Z,33.90
2019-04-06T19:19:32.130Z,34.80
2019-04-06T19:22:00.558Z,35.50
2019-04-06T19:24:29.679Z,35.80
2019-04-06T19:26:58.206Z,36.10
2019-04-06T19:29:26.635Z,36.40
2019-04-06T19:31:57.297Z,35.70
2019-04-06T19:34:25.231Z,35.50
2019-04-06T19:36:53.682Z,35.80
2019-04-06T19:39:22.123Z,35.70
2019-04-06T19:41:51.030Z,35.80
2019-04-06T19:44:19.613Z,34.90
2019-04-06T19:46:48.134Z,35.50
2019-04-06T19:49:16.644Z,35.80
2019-04-06T19:51:45.114Z,37.20
2019-04-06T19:54:13.772Z,37.30
2019-04-06T19:56:42.924Z,38.20
2019-04-06T19:59:13.444Z,40.80
2019-04-06T20:01:42.142Z,40.00
2019-04-06T20:04:11.333Z,40.80
2019-04-06T20:06:39.881Z,40.20
2019-04-06T20:09:08.629Z,42.00
2019-04-06T20:11:37.472Z,41.40
2019-04-06T20:14:06.215Z,42.10
2019-04-06T20:16:35.216Z,41.20
2019-04-06T20:19:04.432Z,41.00
2019-04-06T20:21:33.145Z,41.10
2019-04-06T20:24:01.659Z,41.00
2019-04-06T20:26:31.640Z,65.30
2019-04-06T20:29:01.383Z,65.70
2019-04-06T20:31:30.508Z,66.20
2019-04-06T20:33:59.038Z,66.70
2019-04-06T20:36:27.532Z,66.50
2019-04-06T20:38:56.580Z,66.60
2019-04-06T20:41:25.630Z,66.50
2019-04-06T20:43:54.247Z,66.50
2019-04-06T20:46:24.802Z,66.50
2019-04-06T20:48:53.832Z,67.00
2019-04-06T20:51:22.584Z,67.20
2019-04-06T20:53:51.181Z,67.10
2019-04-06T20:56:19.695Z,67.20
2019-04-06T20:58:48.219Z,67.30
2019-04-06T21:01:16.871Z,67.10
2019-04-06T21:03:45.403Z,67.50
2019-04-06T21:06:14.006Z,67.60
2019-04-06T21:08:42.603Z,67.50
2019-04-06T21:11:11.140Z,67.90
2019-04-06T21:13:40.743Z,68.20
2019-04-06T21:16:09.370Z,68.00
2019-04-06T21:18:37.803Z,68.00
2019-04-06T21:21:06.412Z,68.10
2019-04-06T21:23:34.967Z,68.20
2019-04-06T21:26:03.538Z,68.60
2019-04-06T21:28:32.096Z,68.10
2019-04-06T21:31:00.637Z,67.80
2019-04-06T21:33:29.275Z,68.30
2019-04-06T21:35:58.356Z,68.50
2019-04-06T21:38:28.365Z,69.10
2019-04-06T21:40:57.043Z,68.90
2019-04-06T21:43:25.503Z,68.70
2019-04-06T21:45:54.336Z,68.90
2019-04-06T21:48:23.302Z,69.40
2019-04-06T21:50:51.760Z,69.00
2019-04-06T21:53:20.342Z,69.20
2019-04-06T21:56:00.544Z,69.50
2019-04-06T21:58:20.794Z,69.30
2019-04-06T22:00:52.485Z,69.80
2019-04-06T22:03:23.351Z,69.30
2019-04-06T22:05:52.038Z,69.70
2019-04-06T22:08:20.500Z,69.80
2019-04-06T22:10:49.129Z,70.10
2019-04-06T22:13:18.365Z,69.70
2019-04-06T22:15:47.311Z,69.80
2019-04-06T22:18:15.913Z,69.90
2019-04-06T22:20:44.339Z,69.90
2019-04-06T22:23:13.109Z,70.00
2019-04-06T22:25:41.712Z,70.60
2019-04-06T22:28:10.885Z,70.60
2019-04-06T22:30:40.482Z,70.50
2019-04-06T22:33:09.293Z,70.40
2019-04-06T22:35:38.391Z,70.50
2019-04-06T22:38:08.018Z,71.30
2019-04-06T22:40:37.051Z,71.20
2019-04-06T22:43:05.723Z,71.50
2019-04-06T22:45:34.912Z,71.40
2019-04-06T22:48:03.545Z,71.60
2019-04-06T22:50:32.677Z,71.30
2019-04-06T22:53:01.178Z,72.00
2019-04-06T22:55:29.808Z,71.10
2019-04-06T22:57:58.398Z,71.40
2019-04-06T23:00:37.507Z,70.60
2019-04-06T23:03:22.790Z,70.80
2019-04-06T23:05:55.425Z,70.60
2019-04-06T23:08:23.889Z,70.70
2019-04-06T23:10:53.963Z,71.00
2019-04-06T23:13:22.459Z,71.90
2019-04-06T23:15:50.963Z,72.30
2019-04-06T23:18:19.726Z,72.40
2019-04-06T23:20:48.393Z,72.60
2019-04-06T23:23:16.807Z,72.60
2019-04-06T23:25:45.313Z,72.80
2019-04-06T23:28:14.375Z,73.00
2019-04-06T23:30:44.504Z,73.10
2019-04-06T23:33:13.039Z,73.70
2019-04-06T23:35:42.283Z,74.40
2019-04-06T23:38:11.229Z,74.20
2019-04-06T23:40:39.862Z,73.40
2019-04-06T23:43:08.448Z,73.20
2019-04-06T23:45:37.018Z,73.20
2019-04-06T23:48:05.974Z,73.10
2019-04-06T23:50:34.633Z,73.40
2019-04-06T23:53:03.172Z,73.10
2019-04-06T23:55:33.132Z,73.40
2019-04-06T23:58:01.663Z,73.10
